Texas Valley, New York
Current Conditions -  °F | °C
As of 3:55 AM on Wednesday 22 Oct 2014 (Local Time) from KN03 Reporting Station
Overcast Overcast  
Wind Chill:   Ceiling: 1000
Heat Index:   Visibility: 7mi
Dew Point:   Wind: 6mph
Humidity: 100%   Direction: 20°NNE
Pressure: 30.02"   Gusts: NA
Location:  42.4596°N, 76.0658°W
Report Text: KN03 220755Z AUTO 02005KT 7SM SCT005 BKN010 OVC014 09/09 A3002 RMK AO2
Loading
Personal Weather Stations






























Interactive Weather Map
Tropical Storm Tracking
New forecast layout! Learn more

10-Day Weather Forecast

Advertisements
Track Severe Weather on mobile